createdAt,value
2019-06-27T00:00:41.504Z,102392.42
2019-06-27T00:03:11.498Z,102397.32
2019-06-27T00:05:41.355Z,102400.84
2019-06-27T00:08:11.054Z,102394.96
2019-06-27T00:10:40.723Z,102401.98
2019-06-27T00:13:10.422Z,102401.12
2019-06-27T00:15:40.155Z,102396.41
2019-06-27T00:18:09.849Z,102393.73
2019-06-27T00:20:39.643Z,102400.97
2019-06-27T00:23:09.751Z,102410.17
2019-06-27T00:25:39.463Z,102414.70
2019-06-27T00:28:09.270Z,102404.63
2019-06-27T00:30:38.964Z,102409.27
2019-06-27T00:33:08.732Z,102403.52
2019-06-27T00:35:38.421Z,102417.63
2019-06-27T00:38:08.128Z,102404.77
2019-06-27T00:40:37.822Z,102403.33
2019-06-27T00:43:07.549Z,102408.17
2019-06-27T00:45:37.349Z,102420.07
2019-06-27T00:48:07.111Z,102405.98
2019-06-27T00:50:36.933Z,102397.11
2019-06-27T00:53:06.782Z,102413.56
2019-06-27T00:55:36.530Z,102410.43
2019-06-27T00:58:06.253Z,102403.88
2019-06-27T01:00:36.097Z,102412.61
2019-06-27T01:03:05.900Z,102410.48
2019-06-27T01:05:35.608Z,102413.88
2019-06-27T01:08:05.439Z,102411.45
2019-06-27T01:10:35.224Z,102408.61
2019-06-27T01:13:05.054Z,102417.09
2019-06-27T01:15:34.709Z,102415.16
2019-06-27T01:18:04.483Z,102409.16
2019-06-27T01:20:34.167Z,102412.30
2019-06-27T01:23:03.939Z,102413.88
2019-06-27T01:25:33.650Z,102405.67
2019-06-27T01:28:03.365Z,102399.41
2019-06-27T01:30:33.099Z,102395.42
2019-06-27T01:33:03.207Z,102404.80
2019-06-27T01:35:32.971Z,102401.42
2019-06-27T01:38:02.633Z,102407.28
2019-06-27T01:40:32.343Z,102404.64
2019-06-27T01:43:02.024Z,102403.53
2019-06-27T01:45:33.354Z,102404.66
2019-06-27T01:48:03.008Z,102403.66
2019-06-27T01:50:32.956Z,102404.42
2019-06-27T01:53:02.882Z,102407.63
2019-06-27T01:55:32.739Z,102404.03
2019-06-27T01:58:02.542Z,102398.56
2019-06-27T02:00:32.447Z,102406.36
2019-06-27T02:03:02.154Z,102415.94
2019-06-27T02:05:31.911Z,102415.06
2019-06-27T02:08:01.636Z,102416.63
2019-06-27T02:10:31.666Z,102415.25
2019-06-27T02:13:01.456Z,102418.77
2019-06-27T02:15:31.501Z,102422.45
2019-06-27T02:18:01.354Z,102426.11
2019-06-27T02:20:31.231Z,102428.65
2019-06-27T02:23:01.133Z,102422.38
2019-06-27T02:25:31.372Z,102419.06
2019-06-27T02:28:04.075Z,102428.06
2019-06-27T02:30:44.150Z,102432.02
2019-06-27T02:33:14.198Z,102429.08
2019-06-27T02:35:44.003Z,102434.63
2019-06-27T02:38:13.818Z,102443.25
2019-06-27T02:40:43.562Z,102441.77
2019-06-27T02:43:13.237Z,102435.88
2019-06-27T02:45:42.989Z,102438.22
2019-06-27T02:48:12.694Z,102438.57
2019-06-27T02:50:42.415Z,102435.41
2019-06-27T02:53:12.081Z,102436.99
2019-06-27T02:55:41.869Z,102431.67
2019-06-27T02:58:28.739Z,102430.37
2019-06-27T03:00:43.270Z,102441.37
2019-06-27T03:03:12.942Z,102442.05
2019-06-27T03:05:42.617Z,102433.89
2019-06-27T03:08:12.344Z,102436.16
2019-06-27T03:10:42.328Z,102436.28
2019-06-27T03:13:12.244Z,102446.82
2019-06-27T03:15:42.093Z,102445.11
2019-06-27T03:18:11.814Z,102448.58
2019-06-27T03:20:41.522Z,102454.61
2019-06-27T03:23:11.356Z,102452.29
2019-06-27T03:25:41.038Z,102453.44
2019-06-27T03:28:10.694Z,102453.39
2019-06-27T03:30:40.463Z,102454.03
2019-06-27T03:33:10.142Z,102455.19
2019-06-27T03:35:39.863Z,102455.38
2019-06-27T03:38:09.548Z,102456.48
2019-06-27T03:40:39.384Z,102447.48
2019-06-27T03:43:09.296Z,102455.83
2019-06-27T03:45:39.162Z,102457.42
2019-06-27T03:48:08.910Z,102453.06
2019-06-27T03:50:38.614Z,102454.52
2019-06-27T03:53:08.382Z,102453.25
2019-06-27T03:55:38.194Z,102455.56
2019-06-27T03:58:07.892Z,102455.48
2019-06-27T04:00:37.809Z,102464.45
2019-06-27T04:03:07.569Z,102463.86
2019-06-27T04:05:37.454Z,102468.48
2019-06-27T04:08:07.306Z,102465.03
2019-06-27T04:10:37.026Z,102462.97
2019-06-27T04:13:06.779Z,102460.57
2019-06-27T04:15:36.648Z,102460.70
2019-06-27T04:18:06.429Z,102461.89
2019-06-27T04:20:36.421Z,102461.02
2019-06-27T04:23:06.230Z,102464.36
2019-06-27T04:25:36.098Z,102460.33
2019-06-27T04:28:05.827Z,102463.66
2019-06-27T04:30:35.651Z,102459.16
2019-06-27T04:33:05.527Z,102460.44
2019-06-27T04:35:35.357Z,102471.66
2019-06-27T04:38:05.179Z,102472.50
2019-06-27T04:40:35.173Z,102467.61
2019-06-27T04:43:05.997Z,102472.22
2019-06-27T04:45:36.147Z,102475.47
2019-06-27T04:48:05.902Z,102478.48
2019-06-27T04:50:35.739Z,102484.20
2019-06-27T04:53:05.521Z,102477.85
2019-06-27T04:55:35.786Z,102474.98
2019-06-27T04:58:05.605Z,102475.70
2019-06-27T05:00:35.424Z,102469.58
2019-06-27T05:03:05.200Z,102475.67
2019-06-27T05:05:34.951Z,102472.99
2019-06-27T05:08:04.633Z,102479.42
2019-06-27T05:10:34.317Z,102470.92
2019-06-27T05:13:04.004Z,102473.29
2019-06-27T05:15:33.659Z,102474.49
2019-06-27T05:18:04.364Z,102475.59
2019-06-27T05:20:34.156Z,102478.61
2019-06-27T05:23:03.877Z,102475.94
2019-06-27T05:25:33.713Z,102482.36
2019-06-27T05:28:03.395Z,102482.19
2019-06-27T05:30:33.130Z,102489.28
2019-06-27T05:33:02.948Z,102487.39
2019-06-27T05:35:32.904Z,102486.36
2019-06-27T05:38:02.578Z,102497.03
2019-06-27T05:40:32.285Z,102491.70
2019-06-27T05:43:01.998Z,102497.70
2019-06-27T05:45:31.771Z,102503.58
2019-06-27T05:48:01.512Z,102506.45
2019-06-27T05:50:31.180Z,102503.08
2019-06-27T05:53:01.224Z,102509.49
2019-06-27T05:55:31.503Z,102509.54
2019-06-27T05:58:01.338Z,102513.59
2019-06-27T06:00:31.130Z,102507.67
2019-06-27T06:03:00.868Z,102518.74
2019-06-27T06:05:30.663Z,102516.56
2019-06-27T06:08:00.442Z,102515.13
2019-06-27T06:10:30.183Z,102517.59
2019-06-27T06:13:00.023Z,102511.66
2019-06-27T06:15:29.751Z,102512.36
2019-06-27T06:17:59.538Z,102517.63
2019-06-27T06:20:29.287Z,102523.43
2019-06-27T06:22:59.018Z,102531.74
2019-06-27T06:25:28.701Z,102532.09
2019-06-27T06:27:58.593Z,102532.38
2019-06-27T06:30:43.106Z,102528.34
2019-06-27T06:32:59.928Z,102531.00
2019-06-27T06:35:29.735Z,102533.71
2019-06-27T06:37:59.447Z,102535.80
2019-06-27T06:40:29.327Z,102541.48
2019-06-27T06:43:00.531Z,102535.31
2019-06-27T06:45:30.701Z,102548.03
2019-06-27T06:48:00.383Z,102537.23
2019-06-27T06:50:30.167Z,102534.83
2019-06-27T06:52:59.880Z,102534.90
2019-06-27T06:55:29.673Z,102540.06
2019-06-27T06:57:59.401Z,102534.47
2019-06-27T07:00:29.416Z,102539.95
2019-06-27T07:02:59.129Z,102529.81
2019-06-27T07:05:29.045Z,102536.30
2019-06-27T07:07:58.699Z,102537.85
2019-06-27T07:10:28.569Z,102532.63
2019-06-27T07:12:59.534Z,102540.62
2019-06-27T07:15:29.244Z,102541.58
2019-06-27T07:17:59.112Z,102541.05
2019-06-27T07:20:28.876Z,102536.51
2019-06-27T07:22:58.662Z,102535.77
2019-06-27T07:25:28.325Z,102533.75
2019-06-27T07:27:58.201Z,102537.83
2019-06-27T07:30:28.029Z,102535.90
2019-06-27T07:32:57.924Z,102534.84
2019-06-27T07:35:27.629Z,102534.08
2019-06-27T07:37:57.387Z,102537.70
2019-06-27T07:40:27.059Z,102535.64
2019-06-27T07:42:56.980Z,102539.27
2019-06-27T07:45:26.761Z,102539.57
2019-06-27T07:47:56.794Z,102537.23
2019-06-27T07:50:26.563Z,102538.99
2019-06-27T07:52:56.279Z,102537.34
2019-06-27T07:55:27.206Z,102551.02
2019-06-27T07:57:56.889Z,102536.86
2019-06-27T08:00:27.692Z,102542.17
2019-06-27T08:02:57.380Z,102548.27
2019-06-27T08:05:27.287Z,102544.38
2019-06-27T08:07:56.939Z,102537.20
2019-06-27T08:10:26.745Z,102536.55
2019-06-27T08:12:56.423Z,102537.84
2019-06-27T08:15:26.117Z,102539.01
2019-06-27T08:17:55.753Z,102535.28
2019-06-27T08:20:25.402Z,102534.02
2019-06-27T08:22:55.114Z,102541.33
2019-06-27T08:25:24.835Z,102534.45
2019-06-27T08:27:54.545Z,102530.77
2019-06-27T08:30:24.688Z,102529.61
2019-06-27T08:32:55.077Z,102532.36
2019-06-27T08:35:24.816Z,102533.33
2019-06-27T08:37:54.499Z,102527.15
2019-06-27T08:40:24.227Z,102525.33
2019-06-27T08:42:54.046Z,102525.17
2019-06-27T08:45:24.262Z,102536.66
2019-06-27T08:47:53.950Z,102530.84
2019-06-27T08:50:23.972Z,102532.91
2019-06-27T08:52:53.679Z,102526.48
2019-06-27T08:55:23.364Z,102521.95
2019-06-27T08:57:53.003Z,102527.30
2019-06-27T09:00:22.824Z,102526.47
2019-06-27T09:02:52.511Z,102525.92
2019-06-27T09:05:22.222Z,102529.57
2019-06-27T09:07:53.278Z,102522.53
2019-06-27T09:10:23.438Z,102522.67
2019-06-27T09:12:53.107Z,102524.63
2019-06-27T09:15:22.948Z,102520.19
2019-06-27T09:17:52.643Z,102507.86
2019-06-27T09:20:22.660Z,102517.21
2019-06-27T09:22:52.337Z,102518.42
2019-06-27T09:25:22.686Z,102516.05
2019-06-27T09:27:52.427Z,102520.33
2019-06-27T09:30:22.613Z,102518.77
2019-06-27T09:32:52.365Z,102516.23
2019-06-27T09:35:22.182Z,102508.56
2019-06-27T09:37:51.912Z,102514.19
2019-06-27T09:40:22.204Z,102514.09
2019-06-27T09:42:52.112Z,102512.55
2019-06-27T09:45:22.619Z,102515.13
2019-06-27T09:47:52.325Z,102512.52
2019-06-27T09:50:22.258Z,102505.67
2019-06-27T09:52:52.006Z,102506.17
2019-06-27T09:55:21.991Z,102512.52
2019-06-27T09:57:51.743Z,102513.92
2019-06-27T10:00:22.704Z,102503.54
2019-06-27T10:02:52.518Z,102503.39
2019-06-27T10:05:22.353Z,102505.28
2019-06-27T10:07:52.066Z,102500.94
2019-06-27T10:10:22.053Z,102491.30
2019-06-27T10:12:51.947Z,102498.98
2019-06-27T10:15:21.787Z,102499.28
2019-06-27T10:17:51.527Z,102504.77
2019-06-27T10:20:21.502Z,102498.57
2019-06-27T10:22:51.244Z,102501.06
2019-06-27T10:25:21.120Z,102496.43
2019-06-27T10:27:50.956Z,102498.25
2019-06-27T10:30:22.502Z,102503.20
2019-06-27T10:32:58.980Z,102487.89
2019-06-27T10:35:23.945Z,102486.19
2019-06-27T10:37:53.630Z,102487.21
2019-06-27T10:40:23.617Z,102485.02
2019-06-27T10:42:53.374Z,102480.88
2019-06-27T10:45:23.099Z,102482.02
2019-06-27T10:47:52.841Z,102477.13
2019-06-27T10:50:23.116Z,102484.49
2019-06-27T10:52:52.822Z,102480.58
2019-06-27T10:55:22.619Z,102474.97
2019-06-27T10:57:52.344Z,102476.77
2019-06-27T11:00:22.414Z,102481.09
2019-06-27T11:02:52.305Z,102471.14
2019-06-27T11:05:22.116Z,102463.39
2019-06-27T11:07:51.843Z,102472.67
2019-06-27T11:10:22.068Z,102462.28
2019-06-27T11:12:51.865Z,102470.43
2019-06-27T11:15:21.987Z,102465.27
2019-06-27T11:17:51.798Z,102457.25
2019-06-27T11:20:22.415Z,102463.59
2019-06-27T11:22:52.444Z,102463.63
2019-06-27T11:25:22.177Z,102456.75
2019-06-27T11:27:51.861Z,102457.08
2019-06-27T11:30:22.988Z,102448.03
2019-06-27T11:32:52.664Z,102459.80
2019-06-27T11:35:22.584Z,102454.55
2019-06-27T11:37:52.370Z,102444.14
2019-06-27T11:40:22.644Z,102446.97
2019-06-27T11:42:53.130Z,102442.41
2019-06-27T11:45:23.165Z,102438.72
2019-06-27T11:47:53.099Z,102440.37
2019-06-27T11:50:22.911Z,102444.25
2019-06-27T11:52:52.606Z,102445.80
2019-06-27T11:55:22.357Z,102436.38
2019-06-27T11:57:52.127Z,102441.20
2019-06-27T12:00:22.273Z,102438.09
2019-06-27T12:02:52.045Z,102439.70
2019-06-27T12:05:21.936Z,102427.57
2019-06-27T12:07:51.642Z,102436.59
2019-06-27T12:10:21.789Z,102422.98
2019-06-27T12:12:51.613Z,102424.28
2019-06-27T12:15:21.529Z,102422.23
2019-06-27T12:17:51.458Z,102422.91
2019-06-27T12:20:21.472Z,102418.61
2019-06-27T12:22:51.184Z,102419.52
2019-06-27T12:25:20.973Z,102418.24
2019-06-27T12:27:50.681Z,102410.03
2019-06-27T12:30:20.606Z,102415.95
2019-06-27T12:32:52.453Z,102403.84
2019-06-27T12:35:21.695Z,102397.11
2019-06-27T12:37:51.525Z,102406.83
2019-06-27T12:40:22.506Z,102397.98
2019-06-27T12:42:52.282Z,102399.92
2019-06-27T12:45:22.337Z,102396.06
2019-06-27T12:47:52.147Z,102397.42
2019-06-27T12:50:23.076Z,102405.93
2019-06-27T12:52:52.747Z,102393.70
2019-06-27T12:55:22.487Z,102394.31
2019-06-27T12:57:52.306Z,102388.75
2019-06-27T13:00:22.619Z,102385.70
2019-06-27T13:02:52.484Z,102388.86
2019-06-27T13:05:22.210Z,102387.72
2019-06-27T13:07:51.948Z,102389.66
2019-06-27T13:10:23.336Z,102378.64
2019-06-27T13:12:53.009Z,102376.47
2019-06-27T13:15:22.952Z,102382.05
2019-06-27T13:17:52.675Z,102378.28
2019-06-27T13:20:22.918Z,102366.52
2019-06-27T13:22:52.735Z,102378.52
2019-06-27T13:25:22.549Z,102364.70
2019-06-27T13:27:52.244Z,102365.31
2019-06-27T13:30:22.299Z,102363.36
2019-06-27T13:32:52.100Z,102361.17
2019-06-27T13:35:21.885Z,102359.95
2019-06-27T13:37:51.691Z,102358.67
2019-06-27T13:40:21.666Z,102351.75
2019-06-27T13:42:54.575Z,102354.30
2019-06-27T13:45:26.365Z,102345.79
2019-06-27T13:47:54.604Z,102344.42
2019-06-27T13:50:24.298Z,102343.64
2019-06-27T13:52:54.880Z,102339.97
2019-06-27T13:55:24.792Z,102339.76
2019-06-27T13:57:57.487Z,102339.61
2019-06-27T14:00:42.320Z,102336.61
2019-06-27T14:03:12.133Z,102344.98
2019-06-27T14:05:42.251Z,102337.63
2019-06-27T14:08:12.097Z,102332.03
2019-06-27T14:10:41.812Z,102327.31
2019-06-27T14:13:11.795Z,102322.86
2019-06-27T14:15:41.723Z,102322.44
2019-06-27T14:18:11.603Z,102320.85
2019-06-27T14:20:41.438Z,102314.19
2019-06-27T14:23:11.084Z,102319.95
2019-06-27T14:25:40.788Z,102311.28
2019-06-27T14:28:10.565Z,102306.29
2019-06-27T14:30:40.316Z,102306.53
2019-06-27T14:33:09.977Z,102309.66
2019-06-27T14:35:39.992Z,102310.52
2019-06-27T14:38:09.823Z,102304.33
2019-06-27T14:40:39.682Z,102309.08
2019-06-27T14:43:09.466Z,102311.16
2019-06-27T14:45:39.235Z,102308.34
2019-06-27T14:48:09.014Z,102301.06
2019-06-27T14:50:38.760Z,102307.53
2019-06-27T14:53:08.451Z,102309.30
2019-06-27T14:55:38.103Z,102307.17
2019-06-27T14:58:07.970Z,102297.72
2019-06-27T15:00:37.926Z,102306.30
2019-06-27T15:03:07.760Z,102297.27
2019-06-27T15:05:37.507Z,102286.92
2019-06-27T15:08:07.368Z,102295.14
2019-06-27T15:10:37.151Z,102296.50
2019-06-27T15:13:06.989Z,102294.14
2019-06-27T15:15:36.809Z,102299.69
2019-06-27T15:18:06.739Z,102295.57
2019-06-27T15:20:36.556Z,102299.58
2019-06-27T15:23:06.314Z,102294.91
2019-06-27T15:25:35.993Z,102293.34
2019-06-27T15:28:05.802Z,102292.77
2019-06-27T15:30:35.678Z,102291.83
2019-06-27T15:33:05.408Z,102291.95
2019-06-27T15:35:50.921Z,102285.77
2019-06-27T15:38:06.860Z,102286.70
2019-06-27T15:40:36.757Z,102282.19
2019-06-27T15:43:06.432Z,102280.06
2019-06-27T15:45:36.251Z,102287.41
2019-06-27T15:48:05.995Z,102278.73
2019-06-27T15:50:35.840Z,102296.66
2019-06-27T15:53:05.656Z,102286.02
2019-06-27T15:55:35.438Z,102285.66
2019-06-27T15:58:05.153Z,102281.51
2019-06-27T16:00:35.037Z,102279.69
2019-06-27T16:03:05.211Z,102272.67
2019-06-27T16:05:35.113Z,102270.45
2019-06-27T16:08:05.014Z,102273.14
2019-06-27T16:10:34.747Z,102277.98
2019-06-27T16:13:04.514Z,102276.85
2019-06-27T16:15:34.230Z,102269.59
2019-06-27T16:18:04.049Z,102269.06
2019-06-27T16:20:33.803Z,102265.63
2019-06-27T16:23:03.686Z,102266.74
2019-06-27T16:25:33.547Z,102262.67
2019-06-27T16:28:03.475Z,102258.52
2019-06-27T16:30:33.297Z,102258.88
2019-06-27T16:33:03.000Z,102256.00
2019-06-27T16:35:32.643Z,102260.23
2019-06-27T16:38:02.337Z,102256.05
2019-06-27T16:40:32.010Z,102250.52
2019-06-27T16:43:01.716Z,102250.28
2019-06-27T16:45:31.365Z,102251.19
2019-06-27T16:48:01.122Z,102244.81
2019-06-27T16:50:30.970Z,102251.14
2019-06-27T16:53:00.776Z,102248.88
2019-06-27T16:55:30.540Z,102243.91
2019-06-27T16:58:00.193Z,102246.63
2019-06-27T17:00:30.176Z,102243.66
2019-06-27T17:03:00.212Z,102250.13
2019-06-27T17:05:29.977Z,102250.37
2019-06-27T17:07:59.653Z,102254.37
2019-06-27T17:10:29.414Z,102252.83
2019-06-27T17:12:59.309Z,102247.16
2019-06-27T17:15:29.112Z,102254.16
2019-06-27T17:17:58.825Z,102248.98
2019-06-27T17:20:28.525Z,102248.53
2019-06-27T17:22:58.182Z,102249.44
2019-06-27T17:25:27.951Z,102247.83
2019-06-27T17:27:57.641Z,102255.00
2019-06-27T17:30:27.454Z,102250.59
2019-06-27T17:32:57.278Z,102255.83
2019-06-27T17:35:27.231Z,102249.24
2019-06-27T17:37:56.937Z,102254.71
2019-06-27T17:40:26.719Z,102260.48
2019-06-27T17:42:56.508Z,102254.25
2019-06-27T17:45:26.622Z,102247.89
2019-06-27T17:47:57.055Z,102253.80
2019-06-27T17:50:26.896Z,102261.73
2019-06-27T17:52:56.551Z,102261.52
2019-06-27T17:55:26.338Z,102256.09
2019-06-27T17:57:56.050Z,102259.70
2019-06-27T18:00:26.041Z,102254.48
2019-06-27T18:05:42.849Z,102261.18
2019-06-27T18:08:12.685Z,102253.92
2019-06-27T18:10:42.343Z,102260.83
2019-06-27T18:13:12.013Z,102266.93
2019-06-27T18:15:41.681Z,102262.14
2019-06-27T18:18:11.311Z,102268.73
2019-06-27T18:20:41.085Z,102270.07
2019-06-27T18:23:10.822Z,102270.07
2019-06-27T18:25:40.492Z,102275.64
2019-06-27T18:28:10.201Z,102270.50
2019-06-27T18:30:40.179Z,102260.69
2019-06-27T18:33:09.937Z,102272.59
2019-06-27T18:35:39.656Z,102270.97
2019-06-27T18:38:09.415Z,102266.92
2019-06-27T18:40:39.114Z,102271.73
2019-06-27T18:43:08.785Z,102269.18
2019-06-27T18:45:38.642Z,102269.60
2019-06-27T18:48:08.325Z,102270.87
2019-06-27T18:50:38.099Z,102270.70
2019-06-27T18:53:07.862Z,102270.41
2019-06-27T18:55:37.589Z,102261.14
2019-06-27T18:58:07.613Z,102265.59
2019-06-27T19:00:37.540Z,102270.25
2019-06-27T19:03:07.438Z,102266.48
2019-06-27T19:05:37.186Z,102262.19
2019-06-27T19:08:07.105Z,102269.61
2019-06-27T19:10:36.869Z,102259.49
2019-06-27T19:13:06.569Z,102266.66
2019-06-27T19:15:36.352Z,102265.98
2019-06-27T19:18:07.853Z,102267.24
2019-06-27T19:20:41.985Z,102262.25
2019-06-27T19:23:11.482Z,102265.88
2019-06-27T19:25:45.719Z,102271.97
2019-06-27T19:28:15.401Z,102274.97
2019-06-27T19:30:45.055Z,102277.33
2019-06-27T19:33:14.837Z,102273.91
2019-06-27T19:35:44.510Z,102279.66
2019-06-27T19:38:14.185Z,102280.82
2019-06-27T19:40:43.874Z,102280.20
2019-06-27T19:43:27.298Z,102279.34
2019-06-27T19:45:45.147Z,102281.16
2019-06-27T19:48:14.929Z,102286.52
2019-06-27T19:50:44.829Z,102294.02
2019-06-27T19:53:14.617Z,102298.18
2019-06-27T19:55:44.318Z,102298.80
2019-06-27T19:58:14.089Z,102311.33
2019-06-27T20:00:44.144Z,102308.45
2019-06-27T20:03:13.866Z,102309.97
2019-06-27T20:05:43.637Z,102315.11
2019-06-27T20:08:19.565Z,102317.15
2019-06-27T20:10:44.972Z,102312.34
2019-06-27T20:13:14.680Z,102318.95
2019-06-27T20:15:44.524Z,102316.90
2019-06-27T20:18:14.193Z,102320.94
2019-06-27T20:20:43.973Z,102319.78
2019-06-27T20:23:13.769Z,102323.65
2019-06-27T20:25:43.506Z,102325.15
2019-06-27T20:28:13.213Z,102320.70
2019-06-27T20:30:42.899Z,102324.05
2019-06-27T20:33:12.780Z,102327.88
2019-06-27T20:35:42.986Z,102326.16
2019-06-27T20:38:12.660Z,102326.42
2019-06-27T20:40:42.349Z,102325.07
2019-06-27T20:43:12.182Z,102333.19
2019-06-27T20:45:41.927Z,102329.13
2019-06-27T20:48:11.714Z,102330.66
2019-06-27T20:50:42.257Z,102328.19
2019-06-27T20:53:11.978Z,102331.30
2019-06-27T20:55:41.633Z,102330.57
2019-06-27T20:58:11.378Z,102337.36
2019-06-27T21:00:41.502Z,102334.03
2019-06-27T21:03:11.309Z,102334.22
2019-06-27T21:05:41.028Z,102329.03
2019-06-27T21:08:10.750Z,102335.07
2019-06-27T21:10:40.515Z,102338.08
2019-06-27T21:13:10.195Z,102345.66
2019-06-27T21:15:39.867Z,102340.18
2019-06-27T21:18:09.732Z,102345.95
2019-06-27T21:20:39.509Z,102339.62
2019-06-27T21:23:09.151Z,102343.02
2019-06-27T21:25:38.917Z,102342.75
2019-06-27T21:28:08.590Z,102339.33
2019-06-27T21:30:38.405Z,102346.41
2019-06-27T21:33:08.104Z,102353.39
2019-06-27T21:35:37.773Z,102349.56
2019-06-27T21:38:07.504Z,102348.80
2019-06-27T21:40:37.284Z,102348.55
2019-06-27T21:43:07.071Z,102353.96
2019-06-27T21:45:36.822Z,102347.38
2019-06-27T21:48:06.660Z,102351.89
2019-06-27T21:50:36.397Z,102346.70
2019-06-27T21:53:06.224Z,102342.25
2019-06-27T21:55:35.972Z,102348.09
2019-06-27T21:58:05.672Z,102343.53
2019-06-27T22:00:37.254Z,102340.42
2019-06-27T22:03:07.052Z,102343.33
2019-06-27T22:05:36.966Z,102337.66
2019-06-27T22:08:06.858Z,102346.41
2019-06-27T22:10:36.639Z,102348.35
2019-06-27T22:13:06.476Z,102344.24
2019-06-27T22:15:36.305Z,102347.08
2019-06-27T22:18:06.121Z,102345.67
2019-06-27T22:20:39.330Z,102341.47
2019-06-27T22:23:07.355Z,102344.80
2019-06-27T22:25:40.934Z,102345.33
2019-06-27T22:28:08.614Z,102350.41
2019-06-27T22:30:38.378Z,102345.73
2019-06-27T22:33:08.313Z,102352.74
2019-06-27T22:35:38.163Z,102356.75
2019-06-27T22:38:25.370Z,102353.62
2019-06-27T22:41:12.612Z,102351.98
2019-06-27T22:43:59.552Z,102351.25
2019-06-27T22:46:47.108Z,102343.97
2019-06-27T22:49:16.756Z,102339.89
2019-06-27T22:52:06.007Z,102338.81
2019-06-27T22:54:37.293Z,102347.59
2019-06-27T22:57:07.180Z,102338.73
2019-06-27T22:59:36.899Z,102347.27
2019-06-27T23:02:06.742Z,102343.18
2019-06-27T23:04:36.551Z,102345.20
2019-06-27T23:07:06.314Z,102341.73
2019-06-27T23:09:36.048Z,102338.08
2019-06-27T23:12:05.898Z,102345.25
2019-06-27T23:14:35.701Z,102342.20
2019-06-27T23:17:05.424Z,102346.76
2019-06-27T23:19:35.136Z,102348.93
2019-06-27T23:22:04.975Z,102346.37
2019-06-27T23:24:34.624Z,102346.28
2019-06-27T23:27:04.404Z,102345.98
2019-06-27T23:29:34.076Z,102343.88
2019-06-27T23:32:03.813Z,102343.42
2019-06-27T23:34:33.495Z,102346.75
2019-06-27T23:37:03.182Z,102345.23
2019-06-27T23:39:33.024Z,102344.08
2019-06-27T23:42:02.883Z,102346.11
2019-06-27T23:44:32.521Z,102338.68
2019-06-27T23:47:02.190Z,102346.81
2019-06-27T23:49:31.981Z,102343.94
2019-06-27T23:52:01.738Z,102342.61
2019-06-27T23:54:31.486Z,102336.33
2019-06-27T23:57:01.130Z,102333.52
2019-06-27T23:59:30.861Z,102329.85
